createdAt,value
2022-11-18T00:02:02.160Z,11.68
2022-11-18T00:05:05.454Z,11.40
2022-11-18T00:08:08.167Z,10.25
2022-11-18T00:11:13.334Z,10.50
2022-11-18T00:14:19.500Z,10.23
2022-11-18T00:17:23.300Z,9.43
2022-11-18T00:20:26.125Z,10.43
2022-11-18T00:23:29.554Z,10.02
2022-11-18T00:26:32.327Z,9.80
2022-11-18T00:29:36.223Z,10.07
2022-11-18T00:32:38.938Z,9.70
2022-11-18T00:35:42.002Z,10.00
2022-11-18T00:38:45.304Z,10.10
2022-11-18T00:42:07.494Z,10.40
2022-11-18T00:45:10.652Z,9.87
2022-11-18T00:48:13.689Z,10.50
2022-11-18T00:51:19.294Z,10.30
2022-11-18T00:54:22.424Z,10.73
2022-11-18T00:57:25.158Z,9.98
2022-11-18T01:00:28.735Z,10.57
2022-11-18T01:03:31.584Z,10.57
2022-11-18T01:06:34.556Z,9.75
2022-11-18T01:09:37.056Z,9.98
2022-11-18T01:12:58.625Z,9.98
2022-11-18T01:16:01.230Z,10.00
2022-11-18T01:19:04.163Z,9.65
2022-11-18T01:22:06.720Z,10.00
2022-11-18T01:25:09.775Z,10.10
2022-11-18T01:28:13.087Z,9.95
2022-11-18T01:31:18.722Z,9.87
2022-11-18T01:34:21.362Z,10.65
2022-11-18T01:37:24.253Z,10.85
2022-11-18T01:40:29.275Z,10.23
2022-11-18T01:43:50.739Z,10.88
2022-11-18T01:46:53.389Z,10.27
2022-11-18T01:49:56.738Z,9.60
2022-11-18T01:53:04.538Z,9.75
2022-11-18T01:56:12.407Z,8.93
2022-11-18T01:59:20.042Z,9.60
2022-11-18T02:02:23.495Z,10.83
2022-11-18T02:05:26.553Z,9.77
2022-11-18T02:08:30.852Z,9.95
2022-11-18T02:11:51.703Z,9.80
2022-11-18T02:14:54.843Z,8.75
2022-11-18T02:18:11.722Z,9.27
2022-11-18T02:21:35.894Z,9.38
2022-11-18T02:25:06.775Z,10.90
2022-11-18T02:28:55.232Z,9.07
2022-11-18T02:32:01.201Z,9.23
2022-11-18T02:35:11.953Z,8.57
2022-11-18T02:38:18.984Z,8.45
2022-11-18T02:41:25.189Z,9.90
2022-11-18T02:44:30.067Z,9.93
2022-11-18T02:47:33.699Z,9.63
2022-11-18T02:50:37.956Z,9.20
2022-11-18T02:53:41.918Z,9.38
2022-11-18T02:56:45.160Z,9.55
2022-11-18T02:59:48.557Z,9.05
2022-11-18T03:02:51.128Z,9.93
2022-11-18T03:06:13.587Z,10.60
2022-11-18T03:09:31.628Z,8.93
2022-11-18T03:12:46.773Z,9.27
2022-11-18T03:15:58.804Z,10.07
2022-11-18T03:19:10.254Z,8.68
2022-11-18T03:22:19.142Z,9.77
2022-11-18T03:25:35.094Z,9.57
2022-11-18T03:28:45.889Z,9.85
2022-11-18T03:32:02.622Z,10.05
2022-11-18T03:35:13.118Z,9.35
2022-11-18T03:38:19.037Z,9.10
2022-11-18T03:41:22.843Z,9.45
2022-11-18T03:44:30.172Z,10.38
2022-11-18T03:47:36.316Z,10.20
2022-11-18T03:50:44.669Z,9.40
2022-11-18T03:53:53.453Z,11.03
2022-11-18T03:57:07.186Z,9.32
2022-11-18T04:00:11.755Z,9.48
2022-11-18T04:03:26.320Z,10.13
2022-11-18T04:06:37.310Z,9.60
2022-11-18T04:09:45.530Z,9.70
2022-11-18T04:13:07.561Z,9.55
2022-11-18T04:16:11.484Z,8.45
2022-11-18T04:19:14.421Z,9.38
2022-11-18T04:22:18.220Z,9.07
2022-11-18T04:25:20.854Z,8.70
2022-11-18T04:28:23.864Z,9.90
2022-11-18T04:31:26.627Z,8.80
2022-11-18T04:34:30.768Z,8.82
2022-11-18T04:37:33.710Z,9.13
2022-11-18T04:40:36.752Z,9.07
2022-11-18T04:43:39.422Z,8.63
2022-11-18T04:46:43.231Z,8.13
2022-11-18T04:49:45.965Z,8.50
2022-11-18T04:52:49.023Z,9.18
2022-11-18T04:55:51.740Z,10.03
2022-11-18T04:58:54.909Z,8.75
2022-11-18T05:01:59.462Z,10.32
2022-11-18T05:05:02.503Z,9.77
2022-11-18T05:08:05.560Z,9.68
2022-11-18T05:11:27.269Z,9.10
2022-11-18T05:14:30.638Z,10.02
2022-11-18T05:17:35.407Z,8.73
2022-11-18T05:20:41.497Z,10.15
2022-11-18T05:23:44.850Z,10.45
2022-11-18T05:26:48.102Z,10.47
2022-11-18T05:29:51.802Z,10.82
2022-11-18T05:32:54.827Z,9.48
2022-11-18T05:35:57.999Z,10.25
2022-11-18T05:39:01.174Z,10.38
2022-11-18T05:42:22.890Z,9.00
2022-11-18T05:45:25.534Z,9.82
2022-11-18T05:48:28.729Z,9.88
2022-11-18T05:51:31.947Z,9.38
2022-11-18T05:54:35.383Z,9.95
2022-11-18T05:57:38.055Z,11.17
2022-11-18T06:00:41.188Z,9.85
2022-11-18T06:03:44.456Z,13.48
2022-11-18T06:06:48.393Z,10.15
2022-11-18T06:09:57.933Z,10.00
2022-11-18T06:13:06.380Z,10.70
2022-11-18T06:16:09.587Z,10.50
2022-11-18T06:19:12.217Z,9.20
2022-11-18T06:22:15.252Z,8.98
2022-11-18T06:25:18.268Z,8.82
2022-11-18T06:28:22.191Z,9.20
2022-11-18T06:31:24.882Z,8.48
2022-11-18T06:34:27.797Z,8.68
2022-11-18T06:37:30.471Z,7.95
2022-11-18T06:40:35.029Z,7.50
2022-11-18T06:43:43.699Z,8.13
2022-11-18T06:46:56.021Z,9.75
2022-11-18T06:49:58.799Z,9.55
2022-11-18T06:53:01.944Z,8.80
2022-11-18T06:56:06.011Z,8.98
2022-11-18T06:59:09.057Z,9.37
2022-11-18T07:02:11.815Z,9.45
2022-11-18T07:05:14.708Z,9.27
2022-11-18T07:08:17.581Z,9.57
2022-11-18T07:11:23.790Z,9.25
2022-11-18T07:14:26.444Z,8.10
2022-11-18T07:17:30.937Z,8.95
2022-11-18T07:20:34.746Z,9.25
2022-11-18T07:23:37.824Z,9.07
2022-11-18T07:26:40.669Z,9.73
2022-11-18T07:29:43.529Z,9.00
2022-11-18T07:32:46.124Z,8.95
2022-11-18T07:35:49.132Z,8.98
2022-11-18T07:38:52.447Z,8.82
2022-11-18T07:41:55.355Z,9.32
2022-11-18T07:44:58.116Z,9.90
2022-11-18T07:48:01.506Z,9.50
2022-11-18T07:51:04.659Z,9.52
2022-11-18T07:54:09.636Z,9.82
2022-11-18T07:57:12.171Z,9.55
2022-11-18T08:00:15.492Z,9.27
2022-11-18T08:03:18.472Z,9.05
2022-11-18T08:06:21.450Z,9.48
2022-11-18T08:09:24.317Z,9.07
2022-11-18T08:12:26.977Z,9.30
2022-11-18T08:15:30.088Z,9.30
2022-11-18T08:18:33.018Z,8.80
2022-11-18T08:21:36.168Z,8.48
2022-11-18T08:24:38.833Z,8.50
2022-11-18T08:27:41.934Z,8.85
2022-11-18T08:30:44.561Z,8.80
2022-11-18T08:33:47.750Z,8.95
2022-11-18T08:36:50.566Z,9.30
2022-11-18T08:39:53.624Z,9.20
2022-11-18T08:42:56.215Z,9.30
2022-11-18T08:45:59.160Z,9.77
2022-11-18T08:49:02.623Z,9.05
2022-11-18T08:52:05.798Z,9.30
2022-11-18T08:55:08.704Z,10.50
2022-11-18T08:58:11.583Z,9.88
2022-11-18T09:01:14.480Z,10.03
2022-11-18T09:04:17.754Z,10.55
2022-11-18T09:07:21.586Z,9.65
2022-11-18T09:10:24.680Z,9.40
2022-11-18T09:14:00.579Z,8.73
2022-11-18T09:16:50.040Z,8.53
2022-11-18T09:19:52.705Z,7.85
2022-11-18T09:22:55.627Z,8.02
2022-11-18T09:25:59.907Z,8.55
2022-11-18T09:29:03.463Z,7.72
2022-11-18T09:32:06.213Z,7.57
2022-11-18T09:35:09.548Z,7.93
2022-11-18T09:38:12.186Z,8.93
2022-11-18T09:41:39.775Z,8.52
2022-11-18T09:44:57.822Z,8.05
2022-11-18T09:48:04.293Z,9.00
2022-11-18T09:51:07.011Z,8.25
2022-11-18T09:54:23.192Z,8.50
2022-11-18T09:57:32.181Z,7.40
2022-11-18T10:00:35.296Z,8.20
2022-11-18T10:03:38.580Z,7.20
2022-11-18T10:06:41.293Z,7.37
2022-11-18T10:09:45.399Z,6.53
2022-11-18T10:13:02.850Z,6.15
2022-11-18T10:16:28.625Z,5.72
2022-11-18T10:19:38.786Z,6.70
2022-11-18T10:22:41.747Z,5.72
2022-11-18T10:25:44.667Z,5.75
2022-11-18T10:28:47.620Z,6.30
2022-11-18T10:32:05.810Z,5.05
2022-11-18T10:35:24.662Z,5.60
2022-11-18T10:38:27.954Z,4.62
2022-11-18T10:41:47.881Z,4.55
2022-11-18T10:44:50.642Z,4.25
2022-11-18T10:47:56.939Z,4.15
2022-11-18T10:51:23.820Z,4.17
2022-11-18T10:54:26.887Z,4.32
2022-11-18T10:57:31.900Z,3.92
2022-11-18T11:00:44.064Z,4.53
2022-11-18T11:04:16.051Z,4.57
2022-11-18T11:07:35.998Z,3.73
2022-11-18T11:10:38.788Z,4.07
2022-11-18T11:13:43.457Z,4.20
2022-11-18T11:17:07.186Z,4.43
2022-11-18T11:20:13.379Z,4.15
2022-11-18T11:23:22.030Z,4.33
2022-11-18T11:30:46.455Z,3.92
2022-11-18T11:34:01.109Z,3.90
2022-11-18T11:37:11.097Z,3.75
2022-11-18T11:40:37.612Z,4.10
2022-11-18T11:44:04.836Z,3.72
2022-11-18T11:47:44.729Z,3.78
2022-11-18T11:51:04.967Z,3.47
2022-11-18T11:54:26.791Z,3.50
2022-11-18T11:58:02.678Z,3.40
2022-11-18T12:01:13.746Z,3.83
2022-11-18T12:04:38.629Z,2.80
2022-11-18T12:08:09.878Z,3.05
2022-11-18T12:11:34.139Z,3.05
2022-11-18T12:14:50.888Z,3.07
2022-11-18T12:18:12.121Z,3.20
2022-11-18T12:21:46.129Z,2.50
2022-11-18T12:24:49.002Z,2.42
2022-11-18T12:27:59.149Z,3.30
2022-11-18T12:31:23.181Z,2.67
2022-11-18T12:34:25.638Z,3.03
2022-11-18T12:37:28.578Z,3.00
2022-11-18T12:40:34.953Z,2.50
2022-11-18T12:43:46.943Z,2.75
2022-11-18T12:46:50.888Z,2.90
2022-11-18T12:49:59.970Z,3.10
2022-11-18T12:53:02.587Z,2.45
2022-11-18T12:56:17.788Z,2.67
2022-11-18T12:59:32.746Z,2.55
2022-11-18T13:02:35.742Z,2.33
2022-11-18T13:05:39.407Z,2.20
2022-11-18T13:08:42.425Z,2.42
2022-11-18T13:11:55.443Z,2.35
2022-11-18T13:15:17.028Z,3.15
2022-11-18T13:18:21.167Z,3.23
2022-11-18T13:21:45.205Z,2.92
2022-11-18T13:24:50.326Z,2.83
2022-11-18T13:28:25.631Z,2.97
2022-11-18T13:32:06.448Z,3.12
2022-11-18T13:35:21.438Z,2.87
2022-11-18T13:38:28.412Z,4.25
2022-11-18T13:41:34.439Z,3.25
2022-11-18T13:44:38.345Z,3.47
2022-11-18T13:47:46.692Z,3.50
2022-11-18T13:50:55.041Z,3.10
2022-11-18T13:53:58.192Z,3.30
2022-11-18T13:57:00.899Z,3.58
2022-11-18T14:00:07.473Z,3.60
2022-11-18T14:03:19.531Z,3.12
2022-11-18T14:06:36.729Z,3.80
2022-11-18T14:09:54.818Z,2.95
2022-11-18T14:12:59.384Z,3.78
2022-11-18T14:16:23.987Z,3.70
2022-11-18T14:19:30.567Z,3.75
2022-11-18T14:22:33.674Z,3.87
2022-11-18T14:25:36.950Z,4.43
2022-11-18T14:28:39.829Z,4.22
2022-11-18T14:31:42.719Z,2.25
2022-11-18T14:34:45.745Z,4.10
2022-11-18T14:37:48.281Z,4.93
2022-11-18T14:40:59.990Z,4.47
2022-11-18T14:44:02.573Z,5.25
2022-11-18T14:47:30.300Z,5.40
2022-11-18T14:50:32.917Z,5.03
2022-11-18T14:53:35.911Z,4.97
2022-11-18T14:56:38.690Z,6.20
2022-11-18T14:59:41.628Z,5.72
2022-11-18T15:02:44.289Z,6.70
2022-11-18T15:05:47.703Z,7.20
2022-11-18T15:08:52.605Z,6.73
2022-11-18T15:11:55.493Z,4.32
2022-11-18T15:14:58.016Z,6.95
2022-11-18T15:18:01.043Z,7.30
2022-11-18T15:21:04.055Z,7.10
2022-11-18T15:24:07.046Z,7.10
2022-11-18T15:27:10.141Z,7.32
2022-11-18T15:30:15.516Z,7.40
2022-11-18T15:33:18.414Z,8.18
2022-11-18T15:36:26.732Z,8.07
2022-11-18T15:39:29.353Z,7.43
2022-11-18T15:42:32.304Z,8.00
2022-11-18T15:45:34.849Z,9.02
2022-11-18T15:48:38.107Z,9.43
2022-11-18T15:51:41.323Z,9.45
2022-11-18T15:54:44.708Z,10.30
2022-11-18T15:57:47.340Z,9.07
2022-11-18T16:00:50.382Z,8.65
2022-11-18T16:03:53.435Z,9.50
2022-11-18T16:06:57.941Z,10.07
2022-11-18T16:10:19.640Z,10.20
2022-11-18T16:13:22.579Z,10.75
2022-11-18T16:16:28.138Z,11.00
2022-11-18T16:19:33.619Z,10.38
2022-11-18T16:22:36.543Z,12.20
2022-11-18T16:25:44.763Z,11.87
2022-11-18T16:28:47.764Z,12.02
2022-11-18T16:31:52.285Z,10.70
2022-11-18T16:34:59.892Z,11.68
2022-11-18T16:38:03.803Z,13.02
2022-11-18T16:41:26.695Z,11.50
2022-11-18T16:44:29.249Z,13.45
2022-11-18T16:47:32.248Z,14.32
2022-11-18T16:50:35.136Z,12.37
2022-11-18T16:53:37.995Z,11.80
2022-11-18T16:56:40.634Z,13.43
2022-11-18T16:59:43.526Z,12.23
2022-11-18T17:02:46.114Z,12.65
2022-11-18T17:05:49.021Z,12.35
2022-11-18T17:08:52.008Z,13.10
2022-11-18T17:11:55.770Z,12.80
2022-11-18T17:14:58.528Z,12.30
2022-11-18T17:18:01.326Z,11.65
2022-11-18T17:21:12.451Z,12.70
2022-11-18T17:24:19.352Z,11.10
2022-11-18T17:27:22.303Z,12.17
2022-11-18T17:30:25.688Z,11.55
2022-11-18T17:33:28.558Z,11.12
2022-11-18T17:36:31.503Z,10.20
2022-11-18T17:39:34.409Z,11.73
2022-11-18T17:42:37.188Z,11.33
2022-11-18T17:45:41.206Z,10.73
2022-11-18T17:48:45.398Z,11.35
2022-11-18T17:51:48.510Z,11.77
2022-11-18T17:54:51.392Z,11.55
2022-11-18T17:57:53.884Z,11.40
2022-11-18T18:00:56.716Z,13.52
2022-11-18T18:03:59.649Z,12.95
2022-11-18T18:07:02.959Z,12.50
2022-11-18T18:10:06.152Z,12.15
2022-11-18T18:13:28.773Z,11.93
2022-11-18T18:16:33.475Z,12.20
2022-11-18T18:19:36.445Z,13.02
2022-11-18T18:22:39.326Z,15.48
2022-11-18T18:25:42.285Z,13.68
2022-11-18T18:28:45.670Z,14.93
2022-11-18T18:31:48.483Z,13.70
2022-11-18T18:34:51.568Z,13.15
2022-11-18T18:37:54.306Z,16.42
2022-11-18T18:41:01.735Z,16.37
2022-11-18T18:44:04.639Z,18.13
2022-11-18T18:47:07.724Z,21.02
2022-11-18T18:50:10.517Z,18.60
2022-11-18T18:53:13.635Z,25.58
2022-11-18T18:56:16.349Z,17.60
2022-11-18T18:59:19.251Z,15.90
2022-11-18T19:02:22.260Z,17.95
2022-11-18T19:05:44.675Z,19.12
2022-11-18T19:08:49.210Z,21.45
2022-11-18T19:12:14.833Z,23.80
2022-11-18T19:15:20.757Z,19.23
2022-11-18T19:18:24.320Z,19.83
2022-11-18T19:21:27.094Z,19.98
2022-11-18T19:24:48.721Z,19.33
2022-11-18T19:27:53.111Z,19.35
2022-11-18T19:30:59.464Z,19.83
2022-11-18T19:34:01.934Z,16.05
2022-11-18T19:37:04.817Z,16.87
2022-11-18T19:40:10.523Z,21.02
2022-11-18T19:43:14.067Z,17.30
2022-11-18T19:46:16.926Z,14.63
2022-11-18T19:49:22.741Z,16.40
2022-11-18T19:52:25.867Z,14.80
2022-11-18T19:55:29.031Z,10.57
2022-11-18T19:58:36.189Z,6.75
2022-11-18T20:01:39.676Z,6.60
2022-11-18T20:05:02.781Z,6.62
2022-11-18T20:08:05.486Z,5.85
2022-11-18T20:11:11.026Z,6.22
2022-11-18T20:14:14.297Z,5.87
2022-11-18T20:17:17.217Z,5.47
2022-11-18T20:20:19.828Z,5.60
2022-11-18T20:23:22.942Z,5.15
2022-11-18T20:26:28.551Z,4.45
2022-11-18T20:29:31.488Z,5.05
2022-11-18T20:32:34.342Z,5.57
2022-11-18T20:35:37.429Z,4.82
2022-11-18T20:38:41.399Z,5.05
2022-11-18T20:42:05.318Z,4.62
2022-11-18T20:45:09.310Z,6.10
2022-11-18T20:48:14.165Z,5.60
2022-11-18T20:51:19.142Z,6.80
2022-11-18T20:54:22.085Z,7.87
2022-11-18T20:57:24.874Z,8.48
2022-11-18T21:00:28.191Z,8.80
2022-11-18T21:03:31.050Z,9.97
2022-11-18T21:06:34.465Z,8.70
2022-11-18T21:09:37.646Z,9.23
2022-11-18T21:13:00.451Z,8.77
2022-11-18T21:16:03.109Z,8.48
2022-11-18T21:19:06.345Z,7.60
2022-11-18T21:22:09.587Z,8.30
2022-11-18T21:25:12.660Z,7.05
2022-11-18T21:28:15.471Z,6.65
2022-11-18T21:31:23.111Z,6.30
2022-11-18T21:34:26.011Z,6.70
2022-11-18T21:37:28.978Z,8.00
2022-11-18T21:40:31.693Z,7.90
2022-11-18T21:44:03.980Z,7.53
2022-11-18T21:46:58.842Z,7.18
2022-11-18T21:50:01.726Z,6.40
2022-11-18T21:53:04.353Z,7.72
2022-11-18T21:56:10.569Z,7.32
2022-11-18T21:59:13.230Z,7.03
2022-11-18T22:02:16.053Z,7.10
2022-11-18T22:05:18.973Z,7.37
2022-11-18T22:08:21.663Z,6.80
2022-11-18T22:11:25.840Z,6.85
2022-11-18T22:14:29.559Z,9.63
2022-11-18T22:17:32.653Z,9.15
2022-11-18T22:20:35.173Z,7.00
2022-11-18T22:23:38.172Z,6.32
2022-11-18T22:26:40.719Z,6.50
2022-11-18T22:29:46.372Z,5.28
2022-11-18T22:32:48.925Z,5.47
2022-11-18T22:35:52.139Z,6.07
2022-11-18T22:38:55.464Z,6.15
2022-11-18T22:42:17.633Z,5.68
2022-11-18T22:45:20.229Z,5.65
2022-11-18T22:48:23.247Z,5.68
2022-11-18T22:51:26.142Z,5.73
2022-11-18T22:54:44.225Z,5.78
2022-11-18T22:57:46.845Z,5.18
2022-11-18T23:00:49.735Z,5.62
2022-11-18T23:03:53.047Z,5.65
2022-11-18T23:06:55.922Z,5.90
2022-11-18T23:09:58.706Z,5.68
2022-11-18T23:13:20.207Z,6.07
2022-11-18T23:16:23.534Z,6.10
2022-11-18T23:19:26.412Z,6.20
2022-11-18T23:22:28.945Z,6.10
2022-11-18T23:25:32.043Z,6.10
2022-11-18T23:28:34.704Z,5.43
2022-11-18T23:31:40.921Z,5.62
2022-11-18T23:34:43.536Z,6.57
2022-11-18T23:37:46.504Z,5.83
2022-11-18T23:40:55.518Z,5.82
2022-11-18T23:43:58.361Z,5.85
2022-11-18T23:47:01.000Z,6.07
2022-11-18T23:50:04.092Z,5.57
2022-11-18T23:53:06.678Z,5.73
2022-11-18T23:56:11.891Z,6.00
2022-11-18T23:59:14.634Z,6.43
